Time;durP1;ratioP1;P1;durP2;ratioP2;P2;SDS_P1;SDS_P2;PMS_P1;PMS_P2;Temp;Humidity;BMP_temperature;BMP_pressure;BME280_temperature;BME280_humidity;BME280_pressure;Samples;Min_cycle;Max_cycle;Signal;HPM_P1;HPM_P2
2021/12/27 00:00:56;;;;;;;;;;;;;;;;;;;;;
2021/12/27 00:03:53;;;;;;;8.40;3.63;;;-4.30;91.00;;;;;;4939870;29;20052;-90
2021/12/27 00:06:52;;;;;;;12.73;4.88;;;-4.30;91.30;;;;;;4913610;29;20036;-90
2021/12/27 00:09:22;;;;;;;4.32;3.38;;;-4.30;91.40;;;;;;4910712;29;20052;-91
2021/12/27 00:11:48;;;;;;;9.30;3.95;;;-4.40;91.50;;;;;;4904946;29;20043;-92
2021/12/27 00:14:14;;;;;;;6.47;3.45;;;-4.30;91.40;;;;;;4904450;29;20036;-92
2021/12/27 00:16:40;;;;;;;8.65;4.28;;;-4.40;91.50;;;;;;4905528;29;20040;-92
2021/12/27 00:19:06;;;;;;;8.05;3.20;;;-4.40;91.40;;;;;;4904478;29;20040;-92
2021/12/27 00:21:31;;;;;;;4.65;3.33;;;-4.40;91.80;;;;;;4906002;29;20040;-91
2021/12/27 00:24:02;;;;;;;6.15;3.33;;;-4.50;91.60;;;;;;4905440;29;20039;-90
2021/12/27 00:26:28;;;;;;;8.38;4.40;;;-4.50;92.10;;;;;;4921550;29;20040;-92
2021/12/27 00:28:56;;;;;;;9.35;3.88;;;-4.50;91.70;;;;;;4906751;29;20130;-92
2021/12/27 00:31:22;;;;;;;5.55;3.28;;;-4.60;91.90;;;;;;4911096;29;20036;-92
2021/12/27 00:33:50;;;;;;;4.72;2.50;;;-4.70;92.10;;;;;;4908908;29;20036;-92
2021/12/27 00:36:16;;;;;;;4.88;3.03;;;-4.70;91.90;;;;;;4905311;29;20047;-91
2021/12/27 00:38:42;;;;;;;7.03;2.88;;;-4.70;92.10;;;;;;4905313;29;20036;-91
2021/12/27 00:41:07;;;;;;;6.82;2.53;;;-4.80;92.00;;;;;;4921337;29;20135;-91
2021/12/27 00:43:33;;;;;;;7.55;3.97;;;-4.80;91.90;;;;;;4905277;29;20067;-91
2021/12/27 00:45:59;;;;;;;9.95;3.15;;;-4.90;91.90;;;;;;4905863;29;20032;-92
2021/12/27 00:48:25;;;;;;;4.43;3.05;;;-4.90;91.80;;;;;;4905579;29;20088;-92
2021/12/27 00:50:50;;;;;;;4.53;2.67;;;-4.90;91.60;;;;;;4905072;29;20063;-91
2021/12/27 00:53:17;;;;;;;8.82;4.88;;;-4.90;91.70;;;;;;4905665;29;20092;-91
2021/12/27 00:55:43;;;;;;;9.73;3.90;;;-5.00;91.80;;;;;;4920702;29;20040;-91
2021/12/27 00:58:09;;;;;;;13.90;4.97;;;-5.00;91.70;;;;;;4904728;29;20047;-91
2021/12/27 01:00:35;;;;;;;8.43;4.50;;;-5.00;91.60;;;;;;4904294;29;20365;-91
2021/12/27 01:03:00;;;;;;;8.43;3.53;;;-5.10;91.50;;;;;;4904447;29;20400;-91
2021/12/27 01:05:27;;;;;;;11.40;5.10;;;-5.10;91.40;;;;;;4904466;29;20214;-91
2021/12/27 01:07:53;;;;;;;9.48;4.47;;;-5.10;91.80;;;;;;4904152;29;20063;-91
2021/12/27 01:13:18;;;;;;;17.02;5.93;;;-5.20;92.30;;;;;;4921301;29;20044;-91
2021/12/27 01:18:15;;;;;;;12.52;4.20;;;-5.30;92.90;;;;;;4928666;29;20040;-91
2021/12/27 01:20:41;;;;;;;12.93;4.40;;;-5.40;92.40;;;;;;4911885;29;20040;-91
2021/12/27 01:23:07;;;;;;;9.10;3.60;;;-5.50;93.20;;;;;;4908072;29;20100;-91
2021/12/27 01:25:32;;;;;;;5.57;3.70;;;-5.50;92.40;;;;;;4921575;29;20040;-91
2021/12/27 01:27:58;;;;;;;7.50;4.38;;;-5.50;93.20;;;;;;4905606;29;20036;-90
2021/12/27 01:30:24;;;;;;;10.32;3.95;;;-5.60;92.90;;;;;;4904156;29;20048;-90
2021/12/27 01:32:57;;;;;;;7.78;3.42;;;-5.60;92.70;;;;;;4904651;29;20108;-91
2021/12/27 01:35:23;;;;;;;7.78;4.18;;;-5.70;93.40;;;;;;4914175;29;20487;-90
2021/12/27 01:37:51;;;;;;;10.00;4.47;;;-5.70;93.70;;;;;;4904343;29;20504;-91
2021/12/27 01:40:19;;;;;;;17.83;6.78;;;-5.70;93.40;;;;;;4904333;29;20055;-91
2021/12/27 01:43:09;;;;;;;7.32;3.28;;;-5.70;94.30;;;;;;4904478;29;20131;-91
2021/12/27 01:45:42;;;;;;;12.05;5.15;;;-5.70;93.90;;;;;;4923564;29;20036;-91
2021/12/27 01:48:09;;;;;;;19.70;4.85;;;-5.80;93.60;;;;;;4904436;29;20058;-91
2021/12/27 01:50:40;;;;;;;7.45;4.10;;;-5.80;93.80;;;;;;4904353;29;20044;-91
2021/12/27 01:53:06;;;;;;;7.07;3.90;;;-5.90;93.80;;;;;;4899944;29;20080;-91
2021/12/27 01:55:33;;;;;;;5.50;3.85;;;-5.90;94.10;;;;;;4904359;29;20047;-92
2021/12/27 01:57:59;;;;;;;9.73;5.05;;;-5.90;94.10;;;;;;4903737;29;20036;-91
2021/12/27 02:00:25;;;;;;;9.90;4.20;;;-5.90;94.40;;;;;;4920471;29;20083;-91
2021/12/27 02:02:51;;;;;;;10.30;3.25;;;-5.90;93.80;;;;;;4920409;29;20036;-91
2021/12/27 02:05:17;;;;;;;6.63;3.20;;;-6.00;93.70;;;;;;4920345;29;20040;-91
2021/12/27 02:07:43;;;;;;;10.85;3.80;;;-5.90;93.70;;;;;;4903448;29;20059;-91
2021/12/27 02:10:10;;;;;;;13.65;3.95;;;-6.00;93.80;;;;;;4903430;29;20440;-91
2021/12/27 02:12:36;;;;;;;11.15;4.10;;;-5.90;94.60;;;;;;4903069;29;20040;-91
2021/12/27 02:15:07;;;;;;;7.32;4.10;;;-5.90;94.90;;;;;;4903540;29;20036;-92
2021/12/27 02:17:35;;;;;;;8.30;4.05;;;-6.00;94.80;;;;;;4903908;29;20128;-91
2021/12/27 02:20:01;;;;;;;7.80;3.60;;;-6.00;94.80;;;;;;4903929;29;20036;-91
2021/12/27 02:22:29;;;;;;;6.85;3.55;;;-6.00;95.50;;;;;;4902921;29;20036;-91
2021/12/27 02:24:54;;;;;;;9.43;3.75;;;-6.00;95.40;;;;;;4903078;29;20127;-92
2021/12/27 02:27:20;;;;;;;6.47;3.67;;;-6.10;94.70;;;;;;4918523;29;20078;-91
2021/12/27 02:29:46;;;;;;;13.55;5.57;;;-6.10;94.50;;;;;;4903203;29;20052;-91
2021/12/27 02:32:12;;;;;;;7.97;4.43;;;-6.10;95.20;;;;;;4902853;29;20072;-92
2021/12/27 02:34:37;;;;;;;7.38;3.25;;;-6.10;94.90;;;;;;4903924;29;20039;-91
2021/12/27 02:37:03;;;;;;;6.43;3.50;;;-6.10;94.60;;;;;;4905072;29;20369;-91
2021/12/27 02:39:30;;;;;;;11.48;4.53;;;-6.10;94.40;;;;;;4905641;29;20036;-92
2021/12/27 02:41:56;;;;;;;7.78;3.67;;;-6.10;94.40;;;;;;4905517;29;20036;-91
2021/12/27 02:44:22;;;;;;;9.40;3.90;;;-6.20;94.80;;;;;;4903344;29;20040;-91
2021/12/27 02:46:48;;;;;;;14.38;4.13;;;-6.20;95.00;;;;;;4902877;29;20037;-91
2021/12/27 02:49:14;;;;;;;5.60;2.85;;;-6.20;94.60;;;;;;4904384;29;20044;-91
2021/12/27 02:51:40;;;;;;;10.48;3.72;;;-6.20;94.60;;;;;;4902602;29;20076;-91
2021/12/27 02:54:05;;;;;;;10.18;5.57;;;-6.20;94.50;;;;;;4902167;29;20032;-92
2021/12/27 02:56:33;;;;;;;6.30;3.63;;;-6.20;94.40;;;;;;4904862;29;20036;-91
2021/12/27 02:58:59;;;;;;;6.25;3.47;;;-6.20;94.70;;;;;;4924646;29;20058;-91
2021/12/27 03:01:28;;;;;;;10.70;3.70;;;-6.20;94.60;;;;;;4906288;29;20047;-91
2021/12/27 03:03:55;;;;;;;9.00;5.03;;;-6.20;94.70;;;;;;4903046;29;20555;-91
2021/12/27 03:06:21;;;;;;;10.75;4.07;;;-6.20;94.90;;;;;;4919298;29;20100;-91
2021/12/27 03:08:48;;;;;;;7.00;3.45;;;-6.30;94.60;;;;;;4901924;29;20048;-91
2021/12/27 03:11:14;;;;;;;3.38;2.25;;;-6.30;94.50;;;;;;4902531;29;20048;-92
2021/12/27 03:13:44;;;;;;;4.95;2.95;;;-6.30;94.80;;;;;;4902248;29;20032;-91
2021/12/27 03:16:14;;;;;;;14.10;5.40;;;-6.30;94.70;;;;;;4902388;29;20040;-91
2021/12/27 03:18:43;;;;;;;18.00;5.35;;;-6.20;94.70;;;;;;4902207;29;20492;-91
2021/12/27 03:21:09;;;;;;;8.73;4.57;;;-6.30;94.70;;;;;;4902096;29;20534;-92
2021/12/27 03:23:37;;;;;;;15.63;6.15;;;-6.30;94.60;;;;;;4902239;29;20400;-91
2021/12/27 03:26:03;;;;;;;20.45;7.90;;;-6.30;94.50;;;;;;4918797;29;20040;-91
2021/12/27 03:28:30;;;;;;;18.13;9.00;;;-6.30;94.40;;;;;;4901966;29;20479;-92
2021/12/27 03:30:57;;;;;;;16.50;8.40;;;-6.30;94.50;;;;;;4901976;29;20484;-91
2021/12/27 03:33:23;;;;;;;23.75;10.18;;;-6.30;94.40;;;;;;4901829;29;20040;-91
2021/12/27 03:36:02;;;;;;;26.42;9.10;;;-6.30;94.60;;;;;;4901447;29;20032;-92
2021/12/27 03:38:36;;;;;;;19.25;8.38;;;-6.30;94.80;;;;;;4902414;29;20040;-91
2021/12/27 03:41:05;;;;;;;18.40;7.38;;;-6.20;94.90;;;;;;4919018;29;20039;-91
2021/12/27 03:43:30;;;;;;;20.70;10.55;;;-6.20;95.00;;;;;;4921565;29;20051;-91
2021/12/27 03:45:56;;;;;;;20.17;8.23;;;-6.20;94.90;;;;;;4907050;29;20028;-91
2021/12/27 03:48:22;;;;;;;19.48;7.28;;;-6.10;95.20;;;;;;4902294;29;20079;-92
2021/12/27 03:50:48;;;;;;;19.63;6.65;;;-6.00;95.20;;;;;;4901511;29;20040;-91
2021/12/27 03:53:13;;;;;;;12.25;4.93;;;-5.90;95.50;;;;;;4904650;29;20051;-91
2021/12/27 03:55:39;;;;;;;12.02;6.28;;;-5.80;95.40;;;;;;4906136;29;20076;-90
2021/12/27 03:58:11;;;;;;;8.75;4.82;;;-5.80;95.30;;;;;;4905654;29;20036;-92
2021/12/27 04:00:48;;;;;;;15.48;6.03;;;-5.70;95.40;;;;;;4903556;29;20056;-91
2021/12/27 04:03:16;;;;;;;10.10;5.63;;;-5.60;95.40;;;;;;4902148;29;20040;-91
2021/12/27 04:05:41;;;;;;;17.15;7.22;;;-5.40;95.30;;;;;;4903524;29;20391;-92
2021/12/27 04:08:10;;;;;;;21.20;7.85;;;-5.30;95.20;;;;;;4901326;29;20058;-91
2021/12/27 04:10:40;;;;;;;27.02;10.25;;;-5.30;95.00;;;;;;4901724;29;20043;-92
2021/12/27 04:13:08;;;;;;;23.27;8.23;;;-5.20;94.90;;;;;;4901239;29;20051;-91
2021/12/27 04:15:34;;;;;;;20.30;7.88;;;-5.10;94.70;;;;;;4901401;29;20040;-92
2021/12/27 04:18:01;;;;;;;24.50;9.23;;;-5.10;94.70;;;;;;4901685;29;20047;-92
2021/12/27 04:20:27;;;;;;;18.48;8.15;;;-5.00;94.50;;;;;;4901270;29;20048;-92
2021/12/27 04:22:53;;;;;;;10.85;5.97;;;-4.90;94.40;;;;;;4901407;29;20036;-92
2021/12/27 04:25:20;;;;;;;11.20;5.57;;;-4.90;94.30;;;;;;4916962;29;20046;-91
2021/12/27 04:27:47;;;;;;;16.63;7.82;;;-4.90;94.30;;;;;;4901164;29;20036;-91
2021/12/27 04:30:15;;;;;;;18.38;7.45;;;-4.90;94.60;;;;;;4901355;29;20404;-92
2021/12/27 04:32:41;;;;;;;15.77;5.57;;;-4.90;94.40;;;;;;4901407;29;20040;-92
2021/12/27 04:35:08;;;;;;;11.85;6.03;;;-5.00;94.40;;;;;;4901404;29;20036;-91
2021/12/27 04:37:33;;;;;;;14.02;6.75;;;-4.90;94.60;;;;;;4901127;29;20483;-91
2021/12/27 04:40:00;;;;;;;12.38;4.90;;;-4.90;94.50;;;;;;4900926;29;20040;-91
2021/12/27 04:42:29;;;;;;;9.40;4.55;;;-4.90;94.60;;;;;;4900983;29;20168;-92
2021/12/27 04:44:55;;;;;;;15.13;5.75;;;-4.90;94.60;;;;;;4901130;29;20040;-91
2021/12/27 04:47:21;;;;;;;15.98;5.85;;;-4.90;94.60;;;;;;4901608;29;20104;-92
2021/12/27 04:49:47;;;;;;;11.20;5.63;;;-4.90;94.50;;;;;;4916736;29;20048;-91
2021/12/27 04:52:12;;;;;;;16.95;6.15;;;-5.00;94.60;;;;;;4901598;29;20527;-91
2021/12/27 04:54:39;;;;;;;10.60;6.57;;;-4.90;94.80;;;;;;4901044;29;20040;-91
2021/12/27 04:57:05;;;;;;;14.85;6.43;;;-5.00;95.40;;;;;;4901210;29;20032;-91
2021/12/27 04:59:31;;;;;;;11.23;4.90;;;-5.00;95.10;;;;;;4918181;29;20044;-91
2021/12/27 05:01:57;;;;;;;10.15;4.43;;;-4.90;95.40;;;;;;4901288;29;20036;-91
2021/12/27 05:04:23;;;;;;;8.07;4.38;;;-4.90;95.50;;;;;;4901996;29;20043;-90
2021/12/27 05:06:49;;;;;;;6.13;3.95;;;-4.80;95.70;;;;;;4901307;29;20393;-91
2021/12/27 05:09:14;;;;;;;10.15;4.47;;;-4.80;95.70;;;;;;4900788;29;20055;-91
2021/12/27 05:11:41;;;;;;;8.70;5.30;;;-4.70;95.70;;;;;;4919605;29;20123;-91
2021/12/27 05:14:07;;;;;;;11.38;4.85;;;-4.60;95.80;;;;;;4906854;29;20033;-91
2021/12/27 05:16:32;;;;;;;9.38;4.60;;;-4.60;95.60;;;;;;4912130;29;20104;-91
2021/12/27 05:18:58;;;;;;;12.73;4.63;;;-4.50;95.40;;;;;;4905597;29;20180;-92
2021/12/27 05:21:24;;;;;;;7.72;3.97;;;-4.50;95.40;;;;;;4904857;29;20150;-92
2021/12/27 05:23:50;;;;;;;7.78;4.22;;;-4.40;95.50;;;;;;4905565;29;20032;-92
2021/12/27 05:26:17;;;;;;;9.57;5.22;;;-4.40;95.40;;;;;;4904537;29;20036;-91
2021/12/27 05:28:42;;;;;;;9.57;5.20;;;-4.40;95.20;;;;;;4921685;29;20392;-92
2021/12/27 05:31:08;;;;;;;11.23;5.60;;;-4.30;95.30;;;;;;4904404;29;20032;-92
2021/12/27 05:33:34;;;;;;;8.65;3.90;;;-4.40;95.90;;;;;;4904346;29;20036;-92
2021/12/27 05:36:00;;;;;;;13.02;6.22;;;-4.40;95.90;;;;;;4904269;29;20455;-91
2021/12/27 05:38:26;;;;;;;10.05;5.50;;;-4.40;96.20;;;;;;4903667;29;20036;-92
2021/12/27 05:40:54;;;;;;;11.00;5.97;;;-4.40;97.10;;;;;;4904309;29;20084;-92
2021/12/27 05:43:21;;;;;;;8.73;4.65;;;-4.40;96.70;;;;;;4904381;29;20088;-92
2021/12/27 05:45:47;;;;;;;6.60;3.47;;;-4.40;96.40;;;;;;4904151;29;20084;-92
2021/12/27 05:48:12;;;;;;;9.75;6.03;;;-4.40;96.10;;;;;;4920785;29;20032;-92
2021/12/27 05:50:39;;;;;;;4.75;3.33;;;-4.40;96.30;;;;;;4903627;29;20044;-92
2021/12/27 05:53:05;;;;;;;7.53;3.53;;;-4.40;97.00;;;;;;4920448;29;20040;-92
2021/12/27 05:55:33;;;;;;;11.65;5.07;;;-4.30;96.90;;;;;;4903397;29;20091;-92
2021/12/27 05:57:59;;;;;;;8.07;5.20;;;-4.30;96.70;;;;;;4903961;29;20036;-92
2021/12/27 06:00:25;;;;;;;10.05;4.85;;;-4.30;96.80;;;;;;4903686;29;20040;-92
2021/12/27 06:02:53;;;;;;;7.97;3.53;;;-4.20;96.70;;;;;;4920266;29;20391;-92
2021/12/27 06:05:19;;;;;;;8.18;5.03;;;-4.20;97.00;;;;;;4903451;29;20063;-92
2021/12/27 06:07:45;;;;;;;3.95;2.60;;;-4.20;97.10;;;;;;4903279;29;20052;-92
2021/12/27 06:10:12;;;;;;;8.68;4.50;;;-4.20;97.20;;;;;;4902867;29;20051;-92
2021/12/27 06:12:38;;;;;;;5.78;3.05;;;-4.20;97.00;;;;;;4919136;29;20395;-91
2021/12/27 06:15:05;;;;;;;5.43;2.83;;;-4.20;97.00;;;;;;4903394;29;20043;-92
2021/12/27 06:17:32;;;;;;;5.85;3.90;;;-4.10;97.10;;;;;;4903312;29;20038;-92
2021/12/27 06:19:59;;;;;;;7.22;3.55;;;-4.00;97.20;;;;;;4903401;29;20047;-92
2021/12/27 06:22:25;;;;;;;10.13;5.25;;;-4.00;96.90;;;;;;4903741;29;20040;-92
2021/12/27 06:24:51;;;;;;;6.75;4.03;;;-3.90;97.00;;;;;;4903985;29;20050;-92
2021/12/27 06:27:16;;;;;;;6.13;2.75;;;-3.80;96.70;;;;;;4902792;29;20420;-91
2021/12/27 06:29:42;;;;;;;6.60;3.42;;;-3.90;96.90;;;;;;4909173;29;20052;-92
2021/12/27 06:32:13;;;;;;;10.35;5.35;;;-3.90;96.50;;;;;;4913898;29;20087;-92
2021/12/27 06:34:40;;;;;;;6.72;3.72;;;-3.90;96.70;;;;;;4903848;29;20067;-92
2021/12/27 06:37:07;;;;;;;6.82;3.92;;;-4.00;96.70;;;;;;4904082;29;20471;-92
2021/12/27 06:39:33;;;;;;;8.40;3.60;;;-4.00;97.00;;;;;;4920339;29;20032;-91
2021/12/27 06:41:59;;;;;;;8.25;4.13;;;-4.10;97.30;;;;;;4903064;29;20510;-92
2021/12/27 06:44:25;;;;;;;5.45;2.92;;;-4.00;97.50;;;;;;4903434;29;20032;-92
2021/12/27 06:46:52;;;;;;;3.67;2.30;;;-3.90;97.50;;;;;;4903232;29;20040;-92
2021/12/27 06:49:18;;;;;;;6.80;3.05;;;-3.80;97.50;;;;;;4902971;29;20080;-92
2021/12/27 06:51:44;;;;;;;10.95;4.45;;;-3.70;97.40;;;;;;4902922;29;20036;-92
2021/12/27 06:54:10;;;;;;;11.00;5.28;;;-3.60;97.30;;;;;;4902977;29;20410;-92
2021/12/27 06:56:35;;;;;;;7.18;3.75;;;-3.60;97.10;;;;;;4903181;29;20123;-92
2021/12/27 06:59:02;;;;;;;10.93;5.15;;;-3.60;96.80;;;;;;4903986;29;20040;-93
2021/12/27 07:01:29;;;;;;;10.02;4.18;;;-3.70;97.00;;;;;;4904057;29;20036;-92
2021/12/27 07:03:55;;;;;;;6.43;3.40;;;-3.70;96.90;;;;;;4921377;29;20033;-92
2021/12/27 07:06:22;;;;;;;6.80;3.30;;;-3.70;97.10;;;;;;4903530;29;20043;-92
2021/12/27 07:08:52;;;;;;;8.63;4.13;;;-3.70;97.30;;;;;;4906629;29;20071;-92
2021/12/27 07:11:18;;;;;;;10.20;5.95;;;-3.60;97.10;;;;;;4904930;29;20071;-92
2021/12/27 07:13:43;;;;;;;16.33;6.38;;;-3.60;97.10;;;;;;4919993;29;20032;-92
2021/12/27 07:16:09;;;;;;;12.05;6.30;;;-3.70;97.50;;;;;;4902122;29;20467;-92
2021/12/27 07:18:35;;;;;;;14.80;4.75;;;-3.80;97.50;;;;;;4901689;29;20036;-92
2021/12/27 07:21:01;;;;;;;6.30;4.20;;;-3.80;97.40;;;;;;4902593;29;20032;-92
2021/12/27 07:23:37;;;;;;;7.97;3.25;;;-3.90;97.50;;;;;;4901880;29;20051;-92
2021/12/27 07:26:03;;;;;;;7.53;3.35;;;-3.90;97.60;;;;;;4918358;29;20087;-92
2021/12/27 07:28:29;;;;;;;6.53;3.83;;;-3.90;97.70;;;;;;4902427;29;20039;-92
2021/12/27 07:30:57;;;;;;;6.22;3.22;;;-3.80;97.80;;;;;;4901528;29;20040;-93
2021/12/27 07:33:23;;;;;;;6.55;3.35;;;-3.70;98.00;;;;;;4901629;29;20044;-92
2021/12/27 07:35:51;;;;;;;9.68;4.38;;;-3.60;98.10;;;;;;4907739;29;20032;-92
2021/12/27 07:38:17;;;;;;;12.02;5.05;;;-3.50;97.90;;;;;;4917189;29;20098;-93
2021/12/27 07:40:53;;;;;;;4.20;2.90;;;-3.40;97.70;;;;;;4902053;29;20040;-92
2021/12/27 07:43:23;;;;;;;6.95;3.45;;;-3.40;97.30;;;;;;4901637;29;20050;-92
2021/12/27 07:45:52;;;;;;;5.07;2.85;;;-3.40;97.50;;;;;;4919461;29;20064;-92
2021/12/27 07:48:18;;;;;;;8.68;3.70;;;-3.30;97.70;;;;;;4906057;29;20435;-92
2021/12/27 07:50:44;;;;;;;8.25;3.78;;;-3.20;97.50;;;;;;4930145;29;20062;-91
2021/12/27 07:53:13;;;;;;;5.97;3.75;;;-3.10;97.40;;;;;;4919513;29;20153;-93
2021/12/27 07:55:38;;;;;;;8.05;3.85;;;-3.10;97.20;;;;;;4915672;29;20043;-92
2021/12/27 07:58:05;;;;;;;7.25;3.67;;;-3.00;97.10;;;;;;4909935;29;20036;-93
2021/12/27 08:00:31;;;;;;;12.25;5.53;;;-2.90;97.00;;;;;;4902503;29;20036;-92
2021/12/27 08:02:57;;;;;;;8.18;3.92;;;-2.90;97.00;;;;;;4902918;29;20100;-92
2021/12/27 08:05:22;;;;;;;12.73;5.15;;;-2.80;96.80;;;;;;4901813;29;20476;-92
2021/12/27 08:07:48;;;;;;;9.82;4.80;;;-2.80;96.80;;;;;;4901280;29;20060;-93
2021/12/27 08:10:15;;;;;;;6.35;3.42;;;-2.70;96.90;;;;;;4900972;29;20040;-93
2021/12/27 08:12:49;;;;;;;6.28;3.55;;;-2.70;96.80;;;;;;4918704;29;20040;-93
2021/12/27 08:15:18;;;;;;;9.02;5.18;;;-2.70;97.00;;;;;;4901442;29;20040;-92
2021/12/27 08:17:44;;;;;;;4.38;2.63;;;-2.70;97.00;;;;;;4901678;29;20040;-93
2021/12/27 08:20:13;;;;;;;6.10;3.63;;;-2.60;96.90;;;;;;4901375;29;20135;-91
2021/12/27 08:22:39;;;;;;;7.00;3.13;;;-2.60;96.80;;;;;;4901654;29;20131;-92
2021/12/27 08:25:07;;;;;;;5.88;2.95;;;-2.60;96.90;;;;;;4901542;29;20068;-92
2021/12/27 08:27:36;;;;;;;5.53;3.88;;;-2.40;96.90;;;;;;4901379;29;20037;-91
2021/12/27 08:30:04;;;;;;;5.47;3.22;;;-2.40;96.80;;;;;;4901170;29;20047;-92
2021/12/27 08:32:34;;;;;;;6.10;3.03;;;-2.30;96.60;;;;;;4901441;29;20040;-93
2021/12/27 08:35:03;;;;;;;5.68;3.28;;;-2.30;96.60;;;;;;4901661;29;20071;-93
2021/12/27 08:37:30;;;;;;;5.93;3.05;;;-2.20;96.50;;;;;;4901923;29;20036;-94
2021/12/27 08:39:57;;;;;;;4.95;3.05;;;-2.20;96.40;;;;;;4901085;29;20135;-92
2021/12/27 08:42:23;;;;;;;4.90;3.05;;;-2.10;96.40;;;;;;4901630;29;20374;-92
2021/12/27 08:44:49;;;;;;;5.72;2.50;;;-2.00;96.60;;;;;;4901384;29;20083;-92
2021/12/27 08:47:15;;;;;;;5.80;3.63;;;-1.90;96.50;;;;;;4901607;29;20032;-92
2021/12/27 08:49:43;;;;;;;5.10;3.22;;;-1.90;96.00;;;;;;4901689;29;20048;-92
2021/12/27 08:52:12;;;;;;;4.18;2.40;;;-1.90;95.90;;;;;;4905276;29;20155;-92
2021/12/27 08:54:39;;;;;;;4.88;2.47;;;-1.80;95.90;;;;;;4905068;29;20036;-93
2021/12/27 08:57:09;;;;;;;7.28;3.40;;;-1.80;95.70;;;;;;4905420;29;20086;-93
2021/12/27 08:59:36;;;;;;;6.03;4.13;;;-1.80;95.50;;;;;;4922126;29;20459;-92
2021/12/27 09:02:03;;;;;;;5.80;2.88;;;-1.80;95.60;;;;;;4905041;29;20032;-92
2021/12/27 09:04:29;;;;;;;7.28;4.10;;;-1.90;95.40;;;;;;4911406;29;20546;-92
2021/12/27 09:06:55;;;;;;;7.00;3.08;;;-1.90;95.50;;;;;;4913737;29;20077;-91
2021/12/27 09:09:21;;;;;;;10.27;3.28;;;-1.90;95.70;;;;;;4937343;29;20111;-91
2021/12/27 09:11:47;;;;;;;3.85;2.75;;;-1.80;95.80;;;;;;4921079;29;20039;-91
2021/12/27 09:14:14;;;;;;;6.22;3.20;;;-1.80;95.70;;;;;;4910481;29;20037;-92
2021/12/27 09:16:40;;;;;;;5.13;3.08;;;-1.70;95.60;;;;;;4905829;29;20036;-92
2021/12/27 09:19:06;;;;;;;6.78;3.67;;;-1.70;95.40;;;;;;4921492;29;20110;-92
2021/12/27 09:21:32;;;;;;;6.63;3.53;;;-1.60;95.10;;;;;;4921730;29;20040;-92
2021/12/27 09:23:58;;;;;;;8.02;3.78;;;-1.60;94.80;;;;;;4904437;29;20040;-92
2021/12/27 09:26:24;;;;;;;9.85;4.07;;;-1.60;94.80;;;;;;4905409;29;20046;-92
2021/12/27 09:28:50;;;;;;;8.55;3.38;;;-1.60;94.80;;;;;;4904184;29;20071;-92
2021/12/27 09:31:16;;;;;;;9.77;4.78;;;-1.60;94.70;;;;;;4903780;29;20402;-92
2021/12/27 09:33:44;;;;;;;7.13;3.55;;;-1.60;94.70;;;;;;4903952;29;20036;-92
2021/12/27 09:36:10;;;;;;;4.70;3.20;;;-1.50;94.70;;;;;;4903964;29;20047;-92
2021/12/27 09:38:38;;;;;;;11.02;5.72;;;-1.50;94.70;;;;;;4904691;29;20036;-93
2021/12/27 09:41:04;;;;;;;9.02;4.47;;;-1.50;94.50;;;;;;4904010;29;20123;-92
2021/12/27 09:43:32;;;;;;;10.63;5.18;;;-1.50;94.30;;;;;;4903888;29;20548;-92
2021/12/27 09:45:58;;;;;;;11.70;5.10;;;-1.50;94.30;;;;;;4904083;29;20084;-92
2021/12/27 09:48:24;;;;;;;10.38;4.63;;;-1.60;94.10;;;;;;4904796;29;20044;-92
2021/12/27 09:50:54;;;;;;;14.30;4.72;;;-1.60;94.20;;;;;;4906249;29;20087;-92
2021/12/27 09:53:23;;;;;;;7.53;3.85;;;-1.60;94.50;;;;;;4903563;29;20040;-91
2021/12/27 09:55:49;;;;;;;14.70;4.85;;;-1.60;94.50;;;;;;4920529;29;20111;-91
2021/12/27 09:58:14;;;;;;;11.25;5.05;;;-1.60;94.50;;;;;;4903372;29;20127;-92
2021/12/27 10:00:43;;;;;;;15.27;6.80;;;-1.60;94.40;;;;;;4903733;29;20079;-92
2021/12/27 10:03:09;;;;;;;20.42;7.72;;;-1.60;94.40;;;;;;4903673;29;20047;-92
2021/12/27 10:05:37;;;;;;;50.33;17.70;;;-1.60;94.40;;;;;;4903447;29;20036;-92
2021/12/27 10:08:03;;;;;;;47.78;15.07;;;-1.60;94.30;;;;;;4903631;29;20072;-91
2021/12/27 10:10:34;;;;;;;42.40;14.80;;;-1.60;94.20;;;;;;4903528;29;20048;-92
2021/12/27 10:13:06;;;;;;;68.70;20.85;;;-1.60;94.30;;;;;;4903077;29;20040;-92
2021/12/27 10:15:35;;;;;;;52.72;19.17;;;-1.60;94.30;;;;;;4920096;29;20036;-92
2021/12/27 10:18:13;;;;;;;44.38;18.73;;;-1.60;94.20;;;;;;4905122;29;20064;-92
2021/12/27 10:20:41;;;;;;;39.72;13.15;;;-1.60;94.30;;;;;;4905002;29;20040;-92
2021/12/27 10:23:09;;;;;;;36.08;11.18;;;-1.60;94.50;;;;;;4914514;29;20044;-91
2021/12/27 10:25:35;;;;;;;38.40;13.65;;;-1.60;94.30;;;;;;4931252;29;20046;-91
2021/12/27 10:28:02;;;;;;;34.95;15.20;;;-1.60;94.60;;;;;;4917872;29;20052;-91
2021/12/27 10:30:31;;;;;;;36.63;12.40;;;-1.60;94.50;;;;;;4918961;29;20044;-90
2021/12/27 10:33:10;;;;;;;41.90;18.20;;;-1.50;94.50;;;;;;4908818;29;20063;-92
2021/12/27 10:35:44;;;;;;;30.08;13.07;;;-1.50;94.50;;;;;;4921296;29;20087;-92
2021/12/27 10:38:16;;;;;;;35.63;10.90;;;-1.50;94.50;;;;;;4919390;29;20044;-92
2021/12/27 10:40:58;;;;;;;44.38;17.13;;;-1.50;94.40;;;;;;4919645;29;20041;-91
2021/12/27 10:43:44;;;;;;;37.45;13.00;;;-1.50;94.20;;;;;;4924034;29;20044;-91
2021/12/27 10:46:11;;;;;;;55.05;19.10;;;-1.50;94.10;;;;;;4920201;29;20063;-93
2021/12/27 10:48:42;;;;;;;47.90;15.88;;;-1.40;94.10;;;;;;4918700;29;20051;-93
2021/12/27 10:51:13;;;;;;;55.22;23.08;;;-1.40;94.10;;;;;;4902927;29;20616;-91
2021/12/27 10:54:00;;;;;;;59.05;21.55;;;-1.50;93.70;;;;;;4903404;29;20040;-91
2021/12/27 10:56:50;;;;;;;74.93;28.08;;;-1.60;93.50;;;;;;4903153;29;20040;-91
2021/12/27 10:59:17;;;;;;;48.08;14.82;;;-1.70;93.70;;;;;;4904649;29;20127;-91
2021/12/27 11:01:49;;;;;;;67.95;22.02;;;-1.80;93.90;;;;;;4902677;29;20131;-92
2021/12/27 11:04:17;;;;;;;96.50;33.10;;;-2.00;93.90;;;;;;4903175;29;20460;-93
2021/12/27 11:06:43;;;;;;;64.75;25.45;;;-2.20;94.10;;;;;;4902718;29;20032;-92
2021/12/27 11:09:14;;;;;;;47.63;17.20;;;-2.30;94.70;;;;;;4902451;29;20059;-92
2021/12/27 11:11:43;;;;;;;48.70;17.88;;;-2.40;95.40;;;;;;4902675;29;20542;-93
2021/12/27 11:14:16;;;;;;;50.10;15.95;;;-2.30;95.60;;;;;;4902293;29;20044;-93
2021/12/27 11:16:42;;;;;;;56.90;20.05;;;-2.30;95.70;;;;;;4909881;29;20464;-92
2021/12/27 11:19:08;;;;;;;53.60;22.10;;;-2.20;95.70;;;;;;4928988;29;20032;-91
2021/12/27 11:21:45;;;;;;;36.90;14.50;;;-2.10;95.70;;;;;;4907566;29;20074;-90
2021/12/27 11:24:12;;;;;;;59.63;17.05;;;-2.00;95.40;;;;;;4904925;29;20043;-91
2021/12/27 11:26:40;;;;;;;49.38;17.38;;;-2.00;95.10;;;;;;4905032;29;20179;-91
2021/12/27 11:29:18;;;;;;;62.50;18.40;;;-2.00;95.10;;;;;;4916919;29;20035;-92
2021/12/27 11:31:46;;;;;;;35.17;13.90;;;-2.00;95.10;;;;;;4941560;29;20104;-91
2021/12/27 11:34:22;;;;;;;39.67;15.15;;;-2.00;95.10;;;;;;4942825;29;20043;-92
2021/12/27 11:36:58;;;;;;;55.47;18.67;;;-2.00;95.10;;;;;;4946677;29;20112;-90
2021/12/27 11:39:29;;;;;;;48.05;16.73;;;-2.00;94.90;;;;;;4950863;29;20071;-90
2021/12/27 11:42:01;;;;;;;31.27;11.40;;;-2.00;95.00;;;;;;4952056;29;20032;-91
2021/12/27 11:44:51;;;;;;;39.47;17.10;;;-2.10;95.10;;;;;;4968397;29;20046;-92
2021/12/27 11:47:40;;;;;;;39.17;16.75;;;-2.20;95.00;;;;;;4965540;29;20131;-90
2021/12/27 11:50:14;;;;;;;34.88;13.60;;;-2.20;95.10;;;;;;4932452;29;20047;-92
2021/12/27 11:52:49;;;;;;;40.38;15.77;;;-2.30;95.40;;;;;;4943803;29;20071;-92
2021/12/27 11:55:22;;;;;;;28.08;14.43;;;-2.30;95.90;;;;;;4947220;29;20097;-92
2021/12/27 11:57:53;;;;;;;34.88;11.60;;;-2.30;95.60;;;;;;4924712;29;20055;-92
2021/12/27 12:00:21;;;;;;;39.40;11.68;;;-2.40;95.80;;;;;;4902995;29;20040;-92
2021/12/27 12:02:50;;;;;;;32.17;12.88;;;-2.40;96.00;;;;;;4919354;29;20043;-93
2021/12/27 12:05:44;;;;;;;36.47;12.77;;;-2.30;96.10;;;;;;4902179;29;20115;-93
2021/12/27 12:08:32;;;;;;;21.10;8.43;;;-2.20;96.00;;;;;;4901948;29;20056;-92
2021/12/27 12:11:06;;;;;;;41.25;18.90;;;-2.20;95.80;;;;;;4918413;29;20063;-93
2021/12/27 12:13:41;;;;;;;37.35;15.10;;;-2.30;95.50;;;;;;4902122;29;20147;-93
2021/12/27 12:16:13;;;;;;;20.15;9.43;;;-2.30;96.00;;;;;;4903226;29;20104;-93
2021/12/27 12:18:43;;;;;;;24.75;10.02;;;-2.20;96.50;;;;;;4919715;29;20127;-93
2021/12/27 12:21:33;;;;;;;18.52;9.30;;;-2.10;96.10;;;;;;4903827;29;20068;-94
2021/12/27 12:24:04;;;;;;;25.58;10.35;;;-2.10;96.00;;;;;;4918599;29;20036;-92
2021/12/27 12:26:51;;;;;;;19.23;9.07;;;-2.10;95.60;;;;;;4905854;29;20040;-92
2021/12/27 12:29:22;;;;;;;15.60;6.22;;;-2.20;96.00;;;;;;4923761;29;20227;-92
2021/12/27 12:32:05;;;;;;;14.32;6.25;;;-2.20;96.40;;;;;;4906484;29;20046;-92
2021/12/27 12:34:33;;;;;;;15.70;7.80;;;-2.20;96.10;;;;;;4921750;29;20044;-89
2021/12/27 12:37:03;;;;;;;13.15;4.30;;;-2.30;96.00;;;;;;4904756;29;20083;-89
2021/12/27 12:39:50;;;;;;;14.55;5.10;;;-2.40;96.10;;;;;;4920757;29;20047;-87
2021/12/27 12:42:21;;;;;;;12.27;5.25;;;-2.30;96.40;;;;;;4903875;29;20048;-85
2021/12/27 12:44:54;;;;;;;11.10;7.13;;;-2.40;96.70;;;;;;4921043;29;20032;-86
2021/12/27 12:47:34;;;;;;;18.08;8.20;;;-2.40;97.30;;;;;;4920559;29;20040;-84
2021/12/27 12:50:03;;;;;;;11.40;7.05;;;-2.10;98.10;;;;;;4921404;29;20524;-87
2021/12/27 12:52:29;;;;;;;8.55;4.55;;;-1.90;97.70;;;;;;4904470;29;20074;-84